EST,Max TemperatureF,Mean TemperatureF,Min TemperatureF,Max Dew PointF,MeanDew PointF,Min DewpointF,Max Humidity, Mean Humidity, Min Humidity, Max Sea Level PressureIn, Mean Sea Level PressureIn, Min Sea Level PressureIn, Max VisibilityMiles, Mean VisibilityMiles, Min VisibilityMiles, Max Wind SpeedMPH, Mean Wind SpeedMPH, Max Gust SpeedMPH,PrecipitationIn, CloudCover, Events, WindDirDegrees
2014-1-1,15,13,10,9,5,-1,80,69,58,30.44,30.33,30.25,10,6,0,17,8,21,0.03,7,Snow,35
2014-1-2,15,9,2,9,5,-7,84,72,60,30.32,30.20,30.11,10,3,0,24,15,31,0.04,7,Snow,26
2014-1-3,15,3,-10,0,-5,-14,83,67,51,30.46,30.35,30.12,10,10,10,21,8,30,T,2,,216
2014-1-4,32,23,13,27,16,2,92,69,46,30.07,29.97,29.88,10,6,1,22,13,30,0.17,5,Snow,209
2014-1-5,30,25,19,27,23,14,92,87,81,30.05,29.89,29.60,7,1,0,24,10,32,1.03,8,Fog-Snow,15
2014-1-6,19,3,-14,14,-2,-21,84,71,57,30.09,29.84,29.60,10,3,0,30,18,41,0.13,8,Snow,267
2014-1-7,2,-6,-14,-7,-14,-21,74,67,59,30.33,30.18,30.07,10,9,3,22,14,30,T,4,,224
2014-1-8,17,7,-3,6,-1,-6,87,72,56,30.54,30.40,30.26,10,10,6,14,7,18,0.00,3,,229
2014-1-9,23,1,-21,18,-1,-21,92,74,56,30.63,30.52,30.30,10,8,2,12,4,16,T,3,Snow,169
2014-1-10,40,32,23,37,29,19,92,87,81,30.27,30.01,29.65,8,5,2,20,10,24,0.23,8,Rain-Snow,170
2014-1-11,44,39,33,40,35,28,93,86,79,29.64,29.44,29.29,10,6,0,28,13,36,0.23,8,Fog-Rain-Snow,235
2014-1-12,41,37,33,28,26,25,82,69,55,29.91,29.79,29.66,10,10,7,22,12,31,0.00,4,,227
2014-1-13,45,40,35,33,30,28,82,70,57,29.70,29.62,29.54,10,10,7,16,10,22,0.00,2,,220
2014-1-14,39,32,25,30,25,18,89,70,50,29.80,29.72,29.65,10,8,2,26,9,35,T,5,Snow,212
2014-1-15,30,25,20,21,15,9,75,66,57,30.01,29.87,29.66,10,10,8,25,13,33,T,8,Snow,261
2014-1-16,28,24,19,25,18,9,88,78,67,29.93,29.70,29.60,10,4,0,21,12,28,0.23,8,Fog-Snow,182
2014-1-17,30,25,20,25,21,12,85,77,68,29.92,29.72,29.58,10,7,1,21,11,23,0.07,8,Snow,239
2014-1-18,22,19,15,14,11,9,80,74,67,29.94,29.88,29.82,10,7,2,15,7,20,T,8,Snow,204
2014-1-19,31,22,13,24,16,9,88,78,68,29.82,29.62,29.52,10,8,5,29,13,39,T,7,Snow,226
2014-1-20,31,20,8,27,12,-7,92,71,50,30.13,29.84,29.52,10,7,2,22,9,26,T,8,Snow,3
2014-1-21,9,0,-9,-5,-8,-14,74,62,50,30.25,30.20,30.13,10,10,10,17,8,21,0.00,1,,354
2014-1-22,11,-1,-13,5,-1,-17,79,72,65,30.23,30.01,29.90,10,4,1,15,5,18,0.70,7,Snow,182
2014-1-23,14,3,-8,5,1,-12,88,71,53,30.49,30.22,29.92,10,6,2,20,7,24,0.01,6,Snow,292
2014-1-24,20,7,-7,11,-1,-12,83,65,46,30.45,30.06,29.49,10,7,1,26,14,39,0.02,7,Snow,216
2014-1-25,26,14,2,20,11,-7,81,67,53,29.79,29.40,29.24,10,6,0,26,16,37,0.12,7,Fog-Snow,261
2014-1-26,24,13,1,19,6,-8,86,74,62,29.78,29.52,29.36,10,4,0,23,12,23,0.13,7,Snow,214
2014-1-27,17,6,-6,10,-3,-13,80,68,55,30.32,29.92,29.44,10,6,0,23,18,23,0.01,4,Snow,290
2014-1-28,9,1,-7,-4,-9,-13,83,68,53,30.35,30.27,30.16,10,10,8,20,17,22,0.00,1,,239
2014-1-29,19,9,-2,5,-1,-10,79,64,49,30.19,30.11,30.01,10,10,7,25,15,35,T,3,,238
2014-1-30,29,21,12,24,9,0,75,61,46,30.12,29.91,29.76,10,8,1,25,15,37,0.01,4,Snow,199
2014-1-31,32,26,19,27,20,13,85,74,62,30.15,30.01,29.81,10,9,7,16,6,21,T,5,,269